Time;durP1;ratioP1;P1;durP2;ratioP2;P2;SDS_P1;SDS_P2;PMS_P1;PMS_P2;Temp;Humidity;BMP_temperature;BMP_pressure;BME280_temperature;BME280_humidity;BME280_pressure;Samples;Min_cycle;Max_cycle;Signal;HPM_P1;HPM_P2
2022/02/12 00:00:50;;;;;;;;;;;24.10;99.90;;;;;;5074683;28;19921;-73
2022/02/12 00:03:17;;;;;;;;;;;24.00;99.90;;;;;;5075340;28;19962;-74
2022/02/12 00:05:44;;;;;;;;;;;23.90;99.90;;;;;;5074929;28;20335;-73
2022/02/12 00:08:10;;;;;;;;;;;23.70;99.90;;;;;;5075374;28;19947;-74
2022/02/12 00:10:37;;;;;;;;;;;23.70;99.90;;;;;;5075340;28;19927;-74
2022/02/12 00:13:10;;;;;;;;;;;23.80;99.90;;;;;;5075175;28;19909;-73
2022/02/12 00:15:37;;;;;;;;;;;23.90;99.90;;;;;;5074637;28;19954;-72
2022/02/12 00:18:04;;;;;;;;;;;24.20;99.90;;;;;;5074708;28;20011;-72
2022/02/12 00:20:31;;;;;;;;;;;24.10;99.90;;;;;;5074471;28;20346;-72
2022/02/12 00:22:57;;;;;;;;;;;23.90;99.90;;;;;;5074788;28;20411;-72
2022/02/12 00:25:24;;;;;;;;;;;23.80;99.90;;;;;;5074715;28;19909;-73
2022/02/12 00:27:50;;;;;;;;;;;23.70;99.90;;;;;;5074684;28;19995;-73
2022/02/12 00:30:17;;;;;;;;;;;23.60;99.90;;;;;;5074768;28;20011;-74
2022/02/12 00:32:44;;;;;;;;;;;23.50;99.90;;;;;;5075010;28;20422;-73
2022/02/12 00:35:10;;;;;;;;;;;23.40;99.90;;;;;;5074651;28;20290;-72
2022/02/12 00:37:37;;;;;;;;;;;23.50;99.90;;;;;;5074951;28;20329;-73
2022/02/12 00:40:04;;;;;;;;;;;23.50;99.90;;;;;;5074509;28;19943;-73
2022/02/12 00:42:31;;;;;;;;;;;23.60;99.90;;;;;;5074324;28;20007;-73
2022/02/12 00:44:58;;;;;;;;;;;23.80;99.90;;;;;;5074306;28;19909;-72
2022/02/12 00:47:28;;;;;;;;;;;24.10;99.90;;;;;;5074513;28;19991;-73
2022/02/12 00:49:54;;;;;;;;;;;24.20;99.90;;;;;;5074200;28;19919;-73
2022/02/12 00:52:21;;;;;;;;;;;24.40;99.90;;;;;;5074705;28;19909;-73
2022/02/12 00:54:48;;;;;;;;;;;24.40;99.90;;;;;;5074314;28;19909;-72
2022/02/12 00:57:15;;;;;;;;;;;24.60;99.90;;;;;;5074491;28;19909;-72
2022/02/12 00:59:41;;;;;;;;;;;24.70;99.90;;;;;;5074180;28;19921;-74
2022/02/12 01:02:08;;;;;;;;;;;24.60;99.90;;;;;;5074031;28;19969;-72
2022/02/12 01:04:35;;;;;;;;;;;24.60;99.90;;;;;;5074163;28;19908;-72
2022/02/12 01:07:01;;;;;;;;;;;24.50;99.90;;;;;;5074126;28;19908;-73
2022/02/12 01:09:28;;;;;;;;;;;24.40;99.90;;;;;;5074095;28;20420;-72
2022/02/12 01:11:55;;;;;;;;;;;24.30;99.90;;;;;;5073853;28;20003;-73
2022/02/12 01:14:21;;;;;;;;;;;24.30;99.90;;;;;;5072907;28;20003;-73
2022/02/12 01:16:48;;;;;;;;;;;24.40;99.90;;;;;;5074116;28;19909;-73
2022/02/12 01:19:15;;;;;;;;;;;24.40;99.90;;;;;;5073828;28;19912;-73
2022/02/12 01:21:42;;;;;;;;;;;24.70;99.90;;;;;;5073904;28;19909;-74
2022/02/12 01:24:08;;;;;;;;;;;24.80;99.90;;;;;;5073763;28;19908;-73
2022/02/12 01:26:35;;;;;;;;;;;24.70;99.90;;;;;;5073793;28;19961;-73
2022/02/12 01:29:02;;;;;;;;;;;24.90;99.90;;;;;;5073744;28;20430;-73
2022/02/12 01:31:28;;;;;;;;;;;24.90;99.90;;;;;;5073597;28;19943;-73
2022/02/12 01:33:55;;;;;;;;;;;24.60;99.90;;;;;;5073641;28;19909;-73
2022/02/12 01:36:22;;;;;;;;;;;24.40;99.90;;;;;;5073868;28;19909;-73
2022/02/12 01:38:49;;;;;;;;;;;24.30;99.90;;;;;;5073342;28;19916;-73
2022/02/12 01:41:16;;;;;;;;;;;24.30;99.90;;;;;;5073512;28;20252;-73
2022/02/12 01:43:42;;;;;;;;;;;24.30;99.90;;;;;;5073575;28;19909;-73
2022/02/12 01:46:09;;;;;;;;;;;24.30;99.90;;;;;;5073107;28;19926;-74
2022/02/12 01:48:37;;;;;;;;;;;24.30;99.90;;;;;;5073210;28;19908;-73
2022/02/12 01:51:05;;;;;;;;;;;24.10;99.90;;;;;;5073449;28;20015;-73
2022/02/12 01:53:32;;;;;;;;;;;24.10;99.90;;;;;;5073409;28;19908;-73
2022/02/12 01:55:58;;;;;;;;;;;24.10;99.90;;;;;;5073299;28;19908;-73
2022/02/12 01:58:25;;;;;;;;;;;24.00;99.90;;;;;;5073483;28;19995;-73
2022/02/12 02:00:52;;;;;;;;;;;23.90;99.90;;;;;;5073127;28;19920;-74
2022/02/12 02:03:19;;;;;;;;;;;23.90;99.90;;;;;;5073091;28;19920;-73
2022/02/12 02:05:46;;;;;;;;;;;23.90;99.90;;;;;;5073052;28;19995;-72
2022/02/12 02:08:13;;;;;;;;;;;23.80;99.90;;;;;;5072217;28;19920;-74
2022/02/12 02:10:39;;;;;;;;;;;23.80;99.90;;;;;;5072842;28;19920;-74
2022/02/12 02:13:06;;;;;;;;;;;23.80;99.90;;;;;;5073057;28;19948;-74
2022/02/12 02:15:33;;;;;;;;;;;23.60;99.90;;;;;;5080226;28;20367;-73
2022/02/12 02:17:59;;;;;;;;;;;23.40;99.90;;;;;;5109697;27;19927;-75
2022/02/12 02:20:26;;;;;;;;;;;23.10;99.90;;;;;;5074347;28;19908;-73
2022/02/12 02:22:57;;;;;;;;;;;22.70;99.90;;;;;;5091718;28;19908;-74
2022/02/12 02:25:24;;;;;;;;;;;22.10;99.90;;;;;;5092384;28;19919;-75
2022/02/12 02:27:51;;;;;;;;;;;21.60;99.90;;;;;;5100222;28;19915;-75
2022/02/12 02:30:22;;;;;;;;;;;21.20;99.90;;;;;;5113105;28;19922;-75
2022/02/12 02:32:48;;;;;;;;;;;21.00;99.90;;;;;;5097996;27;19909;-76
2022/02/12 02:35:18;;;;;;;;;;;20.90;99.90;;;;;;5091399;28;19965;-75
2022/02/12 02:37:45;;;;;;;;;;;20.80;99.90;;;;;;5091960;28;19908;-76
2022/02/12 02:40:12;;;;;;;;;;;20.80;99.90;;;;;;5090844;28;19912;-75
2022/02/12 02:42:50;;;;;;;;;;;20.70;99.90;;;;;;5090956;28;19908;-75
2022/02/12 02:45:17;;;;;;;;;;;20.50;99.90;;;;;;5091732;28;20328;-74
2022/02/12 02:47:43;;;;;;;;;;;20.30;99.90;;;;;;5091643;28;19916;-74
2022/02/12 02:56:00;;;;;;;;;;;20.20;99.90;;;;;;5092561;28;20238;-76
2022/02/12 02:58:32;;;;;;;;;;;20.20;99.90;;;;;;5092476;28;19908;-75
2022/02/12 03:01:00;;;;;;;;;;;20.10;99.90;;;;;;5092410;28;19924;-76
2022/02/12 03:03:27;;;;;;;;;;;20.20;99.90;;;;;;5092430;28;19908;-76
2022/02/12 03:05:53;;;;;;;;;;;20.20;99.90;;;;;;5090477;28;19912;-76
2022/02/12 03:08:20;;;;;;;;;;;20.30;99.90;;;;;;5091050;28;19939;-75
2022/02/12 03:10:47;;;;;;;;;;;20.40;99.90;;;;;;5092476;28;19916;-75
2022/02/12 03:13:13;;;;;;;;;;;20.30;99.90;;;;;;5092062;28;19923;-75
2022/02/12 03:15:40;;;;;;;;;;;20.40;99.90;;;;;;5091639;28;19955;-74
2022/02/12 03:18:07;;;;;;;;;;;20.20;99.90;;;;;;5092399;28;20019;-75
2022/02/12 03:20:34;;;;;;;;;;;20.20;99.90;;;;;;5096233;28;20351;-75
2022/02/12 03:23:01;;;;;;;;;;;20.30;99.90;;;;;;5096453;28;20354;-75
2022/02/12 03:25:28;;;;;;;;;;;20.30;99.90;;;;;;5096594;28;20286;-76
2022/02/12 03:28:02;;;;;;;;;;;20.40;99.90;;;;;;5096259;28;20027;-74
2022/02/12 03:30:30;;;;;;;;;;;20.40;99.90;;;;;;5096125;28;19920;-75
2022/02/12 03:32:57;;;;;;;;;;;20.40;99.90;;;;;;5096101;28;19912;-74
2022/02/12 03:35:23;;;;;;;;;;;20.50;99.90;;;;;;5095700;28;19915;-74
2022/02/12 03:37:50;;;;;;;;;;;20.40;99.90;;;;;;5095900;28;20007;-74
2022/02/12 03:40:18;;;;;;;;;;;20.30;99.90;;;;;;5096068;28;19908;-75
2022/02/12 03:42:45;;;;;;;;;;;20.20;99.90;;;;;;5096182;28;19966;-75
2022/02/12 03:45:11;;;;;;;;;;;20.20;99.90;;;;;;5095819;28;19915;-75
2022/02/12 03:47:38;;;;;;;;;;;20.20;99.90;;;;;;5095725;28;19999;-76
2022/02/12 03:50:05;;;;;;;;;;;20.20;99.90;;;;;;5094968;28;19956;-74
2022/02/12 03:52:31;;;;;;;;;;;20.30;99.90;;;;;;5095783;28;19950;-74
2022/02/12 03:54:58;;;;;;;;;;;20.40;99.90;;;;;;5095798;28;20284;-75
2022/02/12 03:57:25;;;;;;;;;;;20.50;99.90;;;;;;5095687;28;19909;-75
2022/02/12 03:59:51;;;;;;;;;;;20.50;99.90;;;;;;5095131;28;19939;-75
2022/02/12 04:02:18;;;;;;;;;;;20.40;99.90;;;;;;5095692;28;19969;-75
2022/02/12 04:04:45;;;;;;;;;;;20.40;99.90;;;;;;5094752;28;19908;-75
2022/02/12 04:07:11;;;;;;;;;;;20.50;99.90;;;;;;5095392;28;20350;-75
2022/02/12 04:09:38;;;;;;;;;;;20.60;99.90;;;;;;5095554;28;19919;-74
2022/02/12 04:12:05;;;;;;;;;;;20.40;99.90;;;;;;5095140;28;20003;-75
2022/02/12 04:14:32;;;;;;;;;;;20.40;99.90;;;;;;5095456;28;19934;-76
2022/02/12 04:16:58;;;;;;;;;;;20.40;99.90;;;;;;5095424;28;19908;-74
2022/02/12 04:19:25;;;;;;;;;;;20.40;99.90;;;;;;5094555;28;19908;-74
2022/02/12 04:21:51;;;;;;;;;;;20.50;99.90;;;;;;5095249;28;19908;-74
2022/02/12 04:24:18;;;;;;;;;;;20.70;99.90;;;;;;5095284;28;19965;-74
2022/02/12 04:26:45;;;;;;;;;;;20.80;99.90;;;;;;5095322;28;19914;-75
2022/02/12 04:29:11;;;;;;;;;;;20.70;99.90;;;;;;5095272;28;19955;-74
2022/02/12 04:31:38;;;;;;;;;;;20.60;99.90;;;;;;5094149;28;19961;-74
2022/02/12 04:34:05;;;;;;;;;;;20.50;99.90;;;;;;5094176;28;20006;-75
2022/02/12 04:36:32;;;;;;;;;;;20.40;99.90;;;;;;5095310;28;19908;-74
2022/02/12 04:38:58;;;;;;;;;;;20.30;99.90;;;;;;5095271;28;19915;-74
2022/02/12 04:41:25;;;;;;;;;;;20.20;99.90;;;;;;5095225;28;20007;-74
2022/02/12 04:43:52;;;;;;;;;;;20.20;99.90;;;;;;5094822;28;19908;-75
2022/02/12 04:46:19;;;;;;;;;;;20.20;99.90;;;;;;5094888;28;20587;-75
2022/02/12 04:48:49;;;;;;;;;;;20.20;99.90;;;;;;5094027;28;19915;-74
2022/02/12 04:51:18;;;;;;;;;;;20.10;99.90;;;;;;5094818;28;19923;-74
2022/02/12 04:53:46;;;;;;;;;;;20.00;99.90;;;;;;5094852;28;19908;-73
2022/02/12 04:56:12;;;;;;;;;;;20.00;99.90;;;;;;5094773;28;19912;-74
2022/02/12 04:58:39;;;;;;;;;;;20.00;99.90;;;;;;5094701;28;19919;-74
2022/02/12 05:01:05;;;;;;;;;;;20.00;99.90;;;;;;5094496;28;19924;-73
2022/02/12 05:03:32;;;;;;;;;;;19.80;99.90;;;;;;5094134;28;19994;-74
2022/02/12 05:05:59;;;;;;;;;;;19.80;99.90;;;;;;5094564;28;20432;-73
2022/02/12 05:08:25;;;;;;;;;;;19.80;99.90;;;;;;5094612;28;19908;-73
2022/02/12 05:10:52;;;;;;;;;;;19.80;99.90;;;;;;5094280;28;19923;-74
2022/02/12 05:13:19;;;;;;;;;;;19.80;99.90;;;;;;5094289;28;19908;-73
2022/02/12 05:15:45;;;;;;;;;;;19.80;99.90;;;;;;5094220;28;20255;-74
2022/02/12 05:18:12;;;;;;;;;;;19.60;99.90;;;;;;5093630;28;19926;-73
2022/02/12 05:20:38;;;;;;;;;;;19.50;99.90;;;;;;5094226;28;19954;-73
2022/02/12 05:23:05;;;;;;;;;;;19.40;99.90;;;;;;5094193;28;19908;-73
2022/02/12 05:25:32;;;;;;;;;;;19.40;99.90;;;;;;5094312;28;19908;-73
2022/02/12 05:27:58;;;;;;;;;;;19.40;99.90;;;;;;5093854;28;20348;-74
2022/02/12 05:30:25;;;;;;;;;;;19.40;99.90;;;;;;5093958;28;19916;-73
2022/02/12 05:32:52;;;;;;;;;;;19.40;99.90;;;;;;5093241;28;19908;-74
2022/02/12 05:35:18;;;;;;;;;;;19.40;99.90;;;;;;5093988;28;19915;-73
2022/02/12 05:37:45;;;;;;;;;;;19.40;99.90;;;;;;5093376;28;19908;-73
2022/02/12 05:40:12;;;;;;;;;;;19.50;99.90;;;;;;5093580;28;20370;-74
2022/02/12 05:42:38;;;;;;;;;;;19.50;99.90;;;;;;5092486;28;19916;-76
2022/02/12 05:45:05;;;;;;;;;;;19.60;99.90;;;;;;5093759;28;19908;-74
2022/02/12 05:47:32;;;;;;;;;;;19.60;99.90;;;;;;5092923;28;19915;-74
2022/02/12 05:49:59;;;;;;;;;;;19.60;99.90;;;;;;5093292;28;20313;-74
2022/02/12 05:52:25;;;;;;;;;;;19.70;99.90;;;;;;5093222;28;19908;-74
2022/02/12 05:54:52;;;;;;;;;;;19.60;99.90;;;;;;5093205;28;19909;-75
2022/02/12 05:57:19;;;;;;;;;;;19.60;99.90;;;;;;5092530;28;20350;-74
2022/02/12 05:59:46;;;;;;;;;;;19.60;99.90;;;;;;5092891;28;19950;-74
2022/02/12 06:02:12;;;;;;;;;;;19.60;99.90;;;;;;5092881;28;19912;-74
2022/02/12 06:04:39;;;;;;;;;;;19.70;99.90;;;;;;5093023;28;19912;-74
2022/02/12 06:07:06;;;;;;;;;;;19.80;99.90;;;;;;5093108;28;20355;-73
2022/02/12 06:09:32;;;;;;;;;;;19.80;99.90;;;;;;5093085;28;20352;-74
2022/02/12 06:11:59;;;;;;;;;;;19.80;99.90;;;;;;5093203;28;19912;-74
2022/02/12 06:14:26;;;;;;;;;;;19.70;99.90;;;;;;5093252;28;19915;-74
2022/02/12 06:16:56;;;;;;;;;;;19.70;99.90;;;;;;5093045;28;19915;-74
2022/02/12 06:19:23;;;;;;;;;;;19.60;99.90;;;;;;5093073;28;19908;-74
2022/02/12 06:21:49;;;;;;;;;;;19.50;99.90;;;;;;5093001;28;19912;-74
2022/02/12 06:24:16;;;;;;;;;;;19.60;99.90;;;;;;5093234;28;20354;-74
2022/02/12 06:26:51;;;;;;;;;;;19.70;99.90;;;;;;5093188;28;19908;-74
2022/02/12 06:29:20;;;;;;;;;;;19.60;99.90;;;;;;5093071;28;20264;-74
2022/02/12 06:31:46;;;;;;;;;;;19.50;99.90;;;;;;5092743;28;20033;-74
2022/02/12 06:34:13;;;;;;;;;;;19.60;99.90;;;;;;5093108;28;20330;-73
2022/02/12 06:36:40;;;;;;;;;;;19.50;99.90;;;;;;5092847;28;19912;-73
2022/02/12 06:39:06;;;;;;;;;;;19.60;99.90;;;;;;5092657;28;19908;-73
2022/02/12 06:41:33;;;;;;;;;;;19.60;99.90;;;;;;5092780;28;19922;-74
2022/02/12 06:44:00;;;;;;;;;;;19.70;99.90;;;;;;5092593;28;20226;-74
2022/02/12 06:46:26;;;;;;;;;;;19.90;99.90;;;;;;5092684;28;19908;-74
2022/02/12 06:48:53;;;;;;;;;;;19.90;99.90;;;;;;5092685;28;19917;-74
2022/02/12 06:51:20;;;;;;;;;;;20.00;99.90;;;;;;5092811;28;19916;-74
2022/02/12 06:53:46;;;;;;;;;;;19.90;99.90;;;;;;5092151;28;20283;-73
2022/02/12 06:56:14;;;;;;;;;;;19.60;99.90;;;;;;5091401;28;19961;-73
2022/02/12 06:58:40;;;;;;;;;;;19.50;99.90;;;;;;5092897;28;19958;-73
2022/02/12 07:01:07;;;;;;;;;;;19.50;99.90;;;;;;5092689;28;20298;-73
2022/02/12 07:03:34;;;;;;;;;;;19.50;99.90;;;;;;5092388;28;20003;-73
2022/02/12 07:06:00;;;;;;;;;;;19.40;99.90;;;;;;5092112;28;20323;-74
2022/02/12 07:08:27;;;;;;;;;;;19.20;99.90;;;;;;5092645;28;19951;-74
2022/02/12 07:10:54;;;;;;;;;;;19.20;99.90;;;;;;5092618;28;19951;-74
2022/02/12 07:13:20;;;;;;;;;;;19.30;99.90;;;;;;5092706;28;19908;-75
2022/02/12 07:15:48;;;;;;;;;;;19.30;99.90;;;;;;5092356;28;20072;-74
2022/02/12 07:18:14;;;;;;;;;;;19.20;99.90;;;;;;5092142;28;20367;-73
2022/02/12 07:20:41;;;;;;;;;;;19.20;99.90;;;;;;5092641;28;19912;-74
2022/02/12 07:23:08;;;;;;;;;;;19.20;99.90;;;;;;5092364;28;20238;-74
2022/02/12 07:25:34;;;;;;;;;;;19.30;99.90;;;;;;5092309;28;20362;-74
2022/02/12 07:28:01;;;;;;;;;;;19.30;99.90;;;;;;5092067;28;19908;-74
2022/02/12 07:30:28;;;;;;;;;;;19.20;99.90;;;;;;5092313;28;19985;-74
2022/02/12 07:32:54;;;;;;;;;;;19.30;99.90;;;;;;5092313;28;20382;-74
2022/02/12 07:35:21;;;;;;;;;;;19.20;99.90;;;;;;5092183;28;20323;-74
2022/02/12 07:37:49;;;;;;;;;;;19.30;99.90;;;;;;5092045;28;19912;-73
2022/02/12 07:40:16;;;;;;;;;;;19.30;99.90;;;;;;5092223;28;19908;-74
2022/02/12 07:42:44;;;;;;;;;;;19.20;99.90;;;;;;5092230;28;19908;-74
2022/02/12 07:45:10;;;;;;;;;;;19.20;99.90;;;;;;5092133;28;20416;-74
2022/02/12 07:47:37;;;;;;;;;;;19.20;99.90;;;;;;5086823;28;20278;-74
2022/02/12 07:50:05;;;;;;;;;;;19.10;99.90;;;;;;5071636;28;19917;-73
2022/02/12 07:52:32;;;;;;;;;;;19.20;99.90;;;;;;5072122;28;20373;-74
2022/02/12 07:54:59;;;;;;;;;;;19.10;99.90;;;;;;5070689;28;20377;-74
2022/02/12 07:57:25;;;;;;;;;;;19.10;99.90;;;;;;5071910;28;20256;-74
2022/02/12 07:59:52;;;;;;;;;;;19.10;99.90;;;;;;5071379;28;19924;-74
2022/02/12 08:02:19;;;;;;;;;;;19.10;99.90;;;;;;5071001;28;20018;-74
2022/02/12 08:04:46;;;;;;;;;;;19.20;99.90;;;;;;5071952;28;20279;-75
2022/02/12 08:07:28;;;;;;;;;;;19.20;99.90;;;;;;5075346;28;19915;-74
2022/02/12 08:09:55;;;;;;;;;;;19.20;99.90;;;;;;5075169;28;19971;-74
2022/02/12 08:12:22;;;;;;;;;;;19.30;99.90;;;;;;5075442;28;19908;-74
2022/02/12 08:14:50;;;;;;;;;;;19.20;99.90;;;;;;5075282;28;19926;-74
2022/02/12 08:17:17;;;;;;;;;;;19.20;99.90;;;;;;5074508;28;20247;-74
2022/02/12 08:19:44;;;;;;;;;;;19.20;99.90;;;;;;5075214;28;19909;-73
2022/02/12 08:22:11;;;;;;;;;;;19.20;99.90;;;;;;5075170;28;19913;-73
2022/02/12 08:24:38;;;;;;;;;;;19.20;99.90;;;;;;5075164;28;19912;-73
2022/02/12 08:27:05;;;;;;;;;;;19.10;99.90;;;;;;5075214;28;19908;-73
2022/02/12 08:29:32;;;;;;;;;;;19.00;99.90;;;;;;5075105;28;20410;-74
2022/02/12 08:31:59;;;;;;;;;;;19.00;99.90;;;;;;5074080;28;19916;-74
2022/02/12 08:34:26;;;;;;;;;;;19.00;99.90;;;;;;5074917;28;19909;-74
2022/02/12 08:36:53;;;;;;;;;;;19.00;99.90;;;;;;5075079;28;20000;-74
2022/02/12 08:39:20;;;;;;;;;;;19.00;99.90;;;;;;5074567;28;19978;-74
2022/02/12 08:41:47;;;;;;;;;;;19.00;99.90;;;;;;5074401;28;20012;-75
2022/02/12 08:44:14;;;;;;;;;;;18.90;99.90;;;;;;5074751;28;19916;-74
2022/02/12 08:46:40;;;;;;;;;;;18.90;99.90;;;;;;5074225;28;19908;-72
2022/02/12 08:49:07;;;;;;;;;;;18.80;99.90;;;;;;5074693;28;20397;-72
2022/02/12 08:51:39;;;;;;;;;;;18.80;99.90;;;;;;5074547;28;20351;-72
2022/02/12 08:54:06;;;;;;;;;;;18.80;99.90;;;;;;5074057;28;20042;-72
2022/02/12 08:56:33;;;;;;;;;;;18.60;99.90;;;;;;5074590;28;19919;-73
2022/02/12 08:59:00;;;;;;;;;;;18.60;99.90;;;;;;5074088;28;19908;-74
2022/02/12 09:01:27;;;;;;;;;;;18.50;99.90;;;;;;5073958;28;19950;-74
2022/02/12 09:03:54;;;;;;;;;;;18.50;99.90;;;;;;5074283;28;19909;-74
2022/02/12 09:06:21;;;;;;;;;;;18.50;99.90;;;;;;5074415;28;20283;-74
2022/02/12 09:08:51;;;;;;;;;;;18.50;99.90;;;;;;5074201;28;19916;-75
2022/02/12 09:11:21;;;;;;;;;;;18.50;99.90;;;;;;5074142;28;20414;-74
2022/02/12 09:13:49;;;;;;;;;;;18.50;99.90;;;;;;5073982;28;19908;-75
2022/02/12 09:16:16;;;;;;;;;;;18.50;99.90;;;;;;5073390;28;19916;-74
2022/02/12 09:18:43;;;;;;;;;;;18.40;99.90;;;;;;5074299;28;19917;-74
2022/02/12 09:21:10;;;;;;;;;;;18.40;99.90;;;;;;5074001;28;20317;-75
2022/02/12 09:23:37;;;;;;;;;;;18.40;99.90;;;;;;5074130;28;19914;-74
2022/02/12 09:26:03;;;;;;;;;;;18.40;99.90;;;;;;5074036;28;20437;-73
2022/02/12 09:28:30;;;;;;;;;;;18.50;99.90;;;;;;5073880;28;19912;-73
2022/02/12 09:30:56;;;;;;;;;;;18.40;99.90;;;;;;5073057;28;19928;-73
2022/02/12 09:33:23;;;;;;;;;;;18.50;99.90;;;;;;5073949;28;19908;-73
2022/02/12 09:35:53;;;;;;;;;;;18.50;99.90;;;;;;5072822;28;19958;-73
2022/02/12 09:38:20;;;;;;;;;;;18.50;99.90;;;;;;5071096;28;20367;-74
2022/02/12 09:40:47;;;;;;;;;;;18.50;99.90;;;;;;5071725;28;20329;-73
2022/02/12 09:43:14;;;;;;;;;;;18.40;99.90;;;;;;5071791;28;19909;-74
2022/02/12 09:45:54;;;;;;;;;;;18.40;99.90;;;;;;5071121;28;19982;-74
2022/02/12 09:48:21;;;;;;;;;;;18.40;99.90;;;;;;5071686;28;19915;-74
2022/02/12 09:50:48;;;;;;;;;;;18.40;99.90;;;;;;5071218;28;20321;-73
2022/02/12 09:53:15;;;;;;;;;;;18.30;99.90;;;;;;5071608;28;20371;-74
2022/02/12 09:55:42;;;;;;;;;;;18.30;99.90;;;;;;5071405;28;19991;-73
2022/02/12 09:58:13;;;;;;;;;;;18.30;99.90;;;;;;5071259;28;19966;-74
2022/02/12 10:00:40;;;;;;;;;;;18.30;99.90;;;;;;5070541;28;19928;-75
2022/02/12 10:03:07;;;;;;;;;;;18.50;99.90;;;;;;5071158;28;20011;-73
2022/02/12 10:05:35;;;;;;;;;;;18.50;99.90;;;;;;5071002;28;19912;-75
2022/02/12 10:08:01;;;;;;;;;;;18.50;99.90;;;;;;5071080;28;19924;-74
2022/02/12 10:10:29;;;;;;;;;;;18.50;99.90;;;;;;5071038;28;19912;-74
2022/02/12 10:13:14;;;;;;;;;;;18.40;99.90;;;;;;5071007;28;20687;-74
2022/02/12 10:15:42;;;;;;;;;;;18.40;99.90;;;;;;5070060;28;19913;-73
2022/02/12 10:18:08;;;;;;;;;;;18.50;99.90;;;;;;5070561;28;19912;-74
2022/02/12 10:20:36;;;;;;;;;;;18.50;99.90;;;;;;5070817;28;20014;-74
2022/02/12 10:23:07;;;;;;;;;;;18.40;99.90;;;;;;5070736;28;19917;-74
2022/02/12 10:25:34;;;;;;;;;;;18.40;99.90;;;;;;5070679;28;19995;-73
2022/02/12 10:28:01;;;;;;;;;;;18.40;99.90;;;;;;5069731;28;20389;-74
2022/02/12 10:30:28;;;;;;;;;;;18.30;99.90;;;;;;5069711;28;20389;-73
2022/02/12 10:32:59;;;;;;;;;;;18.40;99.90;;;;;;5071188;28;19931;-74
2022/02/12 10:35:26;;;;;;;;;;;18.40;99.90;;;;;;5070884;28;19963;-75
2022/02/12 10:37:58;;;;;;;;;;;18.40;99.90;;;;;;5070416;28;19908;-74
2022/02/12 10:40:25;;;;;;;;;;;18.40;99.90;;;;;;5069502;28;19981;-72
2022/02/12 10:42:52;;;;;;;;;;;18.40;99.90;;;;;;5070395;28;19931;-73
2022/02/12 10:45:19;;;;;;;;;;;18.40;99.90;;;;;;5069805;28;20005;-73
2022/02/12 10:47:46;;;;;;;;;;;18.40;99.90;;;;;;5070414;28;20225;-73
2022/02/12 10:50:13;;;;;;;;;;;18.40;99.90;;;;;;5070452;28;19939;-73
2022/02/12 10:52:40;;;;;;;;;;;18.60;99.90;;;;;;5070441;28;19916;-72
2022/02/12 10:55:07;;;;;;;;;;;18.50;99.90;;;;;;5069904;28;19908;-72
2022/02/12 10:57:38;;;;;;;;;;;18.40;99.90;;;;;;5070371;28;19913;-75
2022/02/12 11:00:06;;;;;;;;;;;18.40;99.90;;;;;;5069366;28;19960;-73
2022/02/12 11:02:35;;;;;;;;;;;18.30;99.90;;;;;;5070526;28;19995;-74
2022/02/12 11:05:02;;;;;;;;;;;18.30;99.90;;;;;;5070274;28;19978;-74
2022/02/12 11:07:29;;;;;;;;;;;18.30;99.90;;;;;;5070125;28;19916;-74
2022/02/12 11:09:56;;;;;;;;;;;18.30;99.90;;;;;;5069825;28;19921;-73
2022/02/12 11:12:29;;;;;;;;;;;18.30;99.90;;;;;;5102492;28;20389;-74
2022/02/12 11:14:56;;;;;;;;;;;18.30;99.90;;;;;;5069622;28;19958;-74
2022/02/12 11:17:25;;;;;;;;;;;18.30;99.90;;;;;;5070360;28;19931;-73
2022/02/12 11:19:52;;;;;;;;;;;18.30;99.90;;;;;;5070012;28;19913;-73
2022/02/12 11:22:19;;;;;;;;;;;18.30;99.90;;;;;;5069965;28;19912;-72
2022/02/12 11:24:46;;;;;;;;;;;18.30;99.90;;;;;;5070306;28;19908;-72
2022/02/12 11:27:16;;;;;;;;;;;18.30;99.90;;;;;;5070140;28;19915;-72
2022/02/12 11:29:44;;;;;;;;;;;18.30;99.90;;;;;;5069561;28;19908;-72
2022/02/12 11:32:11;;;;;;;;;;;18.30;99.90;;;;;;5069990;28;19932;-74
2022/02/12 11:34:42;;;;;;;;;;;18.30;99.90;;;;;;5069720;28;19912;-72
2022/02/12 11:37:12;;;;;;;;;;;18.30;99.90;;;;;;5070326;28;19931;-72
2022/02/12 11:39:39;;;;;;;;;;;18.30;99.90;;;;;;5070233;28;20432;-73
2022/02/12 11:42:06;;;;;;;;;;;18.30;99.90;;;;;;5074020;28;19970;-72
2022/02/12 11:44:43;;;;;;;;;;;18.30;99.90;;;;;;5073294;28;20423;-74
2022/02/12 11:47:13;;;;;;;;;;;18.30;99.90;;;;;;5073637;28;20447;-74
2022/02/12 11:49:41;;;;;;;;;;;18.30;99.90;;;;;;5073937;28;19920;-73
2022/02/12 11:52:30;;;;;;;;;;;18.30;99.90;;;;;;5073807;28;19912;-74
2022/02/12 11:54:58;;;;;;;;;;;18.30;99.90;;;;;;5073652;28;19913;-73
2022/02/12 11:57:27;;;;;;;;;;;18.40;99.90;;;;;;5073689;28;20376;-74
2022/02/12 12:00:03;;;;;;;;;;;18.40;99.90;;;;;;5072306;28;19921;-73
2022/02/12 12:02:43;;;;;;;;;;;18.40;99.90;;;;;;5073605;28;19958;-74
2022/02/12 12:05:25;;;;;;;;;;;18.30;99.90;;;;;;5073647;28;19912;-73
2022/02/12 12:08:07;;;;;;;;;;;18.40;99.90;;;;;;5073189;28;19908;-73
2022/02/12 12:10:35;;;;;;;;;;;18.30;99.90;;;;;;5073491;28;19990;-74
2022/02/12 12:13:26;;;;;;;;;;;18.40;99.90;;;;;;5072885;28;19919;-74
2022/02/12 12:15:56;;;;;;;;;;;18.30;99.90;;;;;;5065054;28;20501;-73
2022/02/12 12:18:25;;;;;;;;;;;18.40;99.90;;;;;;5073075;28;19917;-74
2022/02/12 12:20:51;;;;;;;;;;;18.40;99.90;;;;;;5073361;28;19955;-74
2022/02/12 12:23:20;;;;;;;;;;;18.30;99.90;;;;;;5073496;28;20371;-75
2022/02/12 12:26:05;;;;;;;;;;;18.40;99.90;;;;;;5072990;28;19919;-74
2022/02/12 12:28:34;;;;;;;;;;;18.40;99.90;;;;;;5072896;28;19912;-74
2022/02/12 12:31:05;;;;;;;;;;;18.30;99.90;;;;;;5105104;28;20345;-75
2022/02/12 12:33:32;;;;;;;;;;;18.30;99.90;;;;;;5073317;28;20007;-72
2022/02/12 12:35:59;;;;;;;;;;;18.40;99.90;;;;;;5072959;28;19924;-75
2022/02/12 12:38:39;;;;;;;;;;;18.30;99.90;;;;;;5105311;28;20365;-75
2022/02/12 12:41:28;;;;;;;;;;;18.40;99.90;;;;;;5072388;28;19980;-74
2022/02/12 12:44:12;;;;;;;;;;;18.50;99.90;;;;;;5072223;28;19913;-72
2022/02/12 12:46:41;;;;;;;;;;;18.40;99.90;;;;;;5072612;28;20260;-74
2022/02/12 12:49:08;;;;;;;;;;;18.50;99.90;;;;;;5072773;28;19922;-74
2022/02/12 12:51:36;;;;;;;;;;;18.50;99.90;;;;;;5072001;28;20303;-73
2022/02/12 12:54:03;;;;;;;;;;;18.50;99.90;;;;;;5072183;28;20371;-73
2022/02/12 12:56:30;;;;;;;;;;;18.50;99.90;;;;;;5072688;28;19916;-74
2022/02/12 12:59:09;;;;;;;;;;;18.50;99.90;;;;;;5071939;28;19913;-72
2022/02/12 13:01:54;;;;;;;;;;;18.40;99.90;;;;;;5072469;28;19920;-72
2022/02/12 13:04:20;;;;;;;;;;;18.50;99.90;;;;;;5072565;28;20163;-73
2022/02/12 13:06:54;;;;;;;;;;;18.50;99.90;;;;;;5072206;28;19908;-73
2022/02/12 13:09:21;;;;;;;;;;;18.40;99.90;;;;;;5081662;28;20006;-73
2022/02/12 13:11:48;;;;;;;;;;;18.50;99.90;;;;;;5072745;28;19974;-73
2022/02/12 13:14:14;;;;;;;;;;;18.40;99.90;;;;;;5072411;28;20385;-74
2022/02/12 13:16:42;;;;;;;;;;;18.50;99.90;;;;;;5072286;28;19912;-73
2022/02/12 13:19:12;;;;;;;;;;;18.50;99.90;;;;;;5071813;28;19913;-73
2022/02/12 13:21:44;;;;;;;;;;;18.60;99.90;;;;;;5072255;28;20358;-73
2022/02/12 13:24:10;;;;;;;;;;;18.70;99.90;;;;;;5104530;28;20586;-73
2022/02/12 13:26:37;;;;;;;;;;;18.70;99.90;;;;;;5072198;28;19962;-73
2022/02/12 13:29:16;;;;;;;;;;;18.70;99.90;;;;;;5072164;28;19992;-73
2022/02/12 13:31:47;;;;;;;;;;;18.70;99.90;;;;;;5071539;28;20298;-71
2022/02/12 13:34:17;;;;;;;;;;;18.50;99.90;;;;;;5071909;28;20378;-73
2022/02/12 13:36:44;;;;;;;;;;;18.60;99.90;;;;;;5071815;28;19954;-72
2022/02/12 13:39:10;;;;;;;;;;;18.60;99.90;;;;;;5071851;28;19909;-74
2022/02/12 13:41:40;;;;;;;;;;;18.50;99.90;;;;;;5071874;28;20343;-75
2022/02/12 13:44:07;;;;;;;;;;;18.60;99.90;;;;;;5071345;28;20367;-73
2022/02/12 13:46:38;;;;;;;;;;;18.60;99.90;;;;;;5071393;28;19916;-74
2022/02/12 13:49:15;;;;;;;;;;;18.60;99.90;;;;;;5071644;28;19909;-74
2022/02/12 13:51:55;;;;;;;;;;;18.60;99.90;;;;;;5071408;28;19943;-75
2022/02/12 13:54:22;;;;;;;;;;;18.70;99.90;;;;;;5071494;28;19912;-74
2022/02/12 13:56:53;;;;;;;;;;;18.70;99.90;;;;;;5071683;28;19964;-75
2022/02/12 13:59:20;;;;;;;;;;;18.70;99.90;;;;;;5070722;28;20338;-74
2022/02/12 14:01:47;;;;;;;;;;;18.70;99.90;;;;;;5071193;28;19909;-73
2022/02/12 14:04:14;;;;;;;;;;;18.70;99.90;;;;;;5070351;28;19954;-75
2022/02/12 14:06:43;;;;;;;;;;;18.90;99.90;;;;;;5071223;28;19915;-74
2022/02/12 14:09:12;;;;;;;;;;;18.80;99.90;;;;;;5071302;28;20462;-74
2022/02/12 14:11:39;;;;;;;;;;;18.70;99.90;;;;;;5070925;28;19917;-73
2022/02/12 14:14:07;;;;;;;;;;;18.70;99.90;;;;;;5071053;28;19916;-73
2022/02/12 14:16:34;;;;;;;;;;;18.70;99.90;;;;;;5071262;28;19971;-73
2022/02/12 14:19:01;;;;;;;;;;;18.70;99.90;;;;;;5071145;28;20743;-73
2022/02/12 14:21:28;;;;;;;;;;;18.60;99.90;;;;;;5071125;28;19912;-74
2022/02/12 14:23:56;;;;;;;;;;;18.60;99.90;;;;;;5070617;28;19919;-73
2022/02/12 14:26:24;;;;;;;;;;;18.70;99.90;;;;;;5071240;28;20007;-74